Altamont, SD

8:39 AM CDT on July 04, 2015 (GMT -0500)
APRSWXNET | | Change Station
CLOSE
Current Station
Personal Weather Station
Location: Clear Lake, SD
Elevation: 1819 ft
Nearby Weather Stations

Elev 1819 ft 44.76 °N, 96.69 °W | Updated 21 minutes ago

Clear
Clear
68 °F
Feels Like 68 °F
N
0
Wind Variable Wind from SSW
Gusts 0.0 mph

Today
High -- | Low -- °F
--% Chance of Precip.
Yesterday
High -- | Low -- °F
Precip. -- in
5:46 AM 9:15 PM
Waning Gibbous, 92% visible
Pressure 29.95 in
Visibility 7.0 miles
Clouds Clear
Dew Point 63 °F
Humidity 85%
Rainfall in
Snow Depth Not available.
UV 3 out of 12
Pollen 4.70 out of 12
Air Quality Not available.
Flu Activity Not available.
METAR KCNB 041334Z AUTO 24005KT 7SM CLR 22/18 A2995 RMK AO2 T02160181

More Conditions Fewer Conditions

Pressure 29.95 in
Visibility 7.0 miles
Clouds Clear
Dew Point 63 °F
Humidity 85%
Rainfall in
Snow Depth Not available.
UV 3 out of 12
Pollen 4.70 out of 12
Air Quality Not available.
Flu Activity Not available.
METAR KCNB 041334Z AUTO 24005KT 7SM CLR 22/18 A2995 RMK AO2 T02160181

More Conditions Fewer Conditions

10-Day Weather Forecast

×

Almanac

Astronomy

Jul. 04, 2015 Rise Set
Actual Time
Civil Twilight
Nautical Twilight
Astronomical Twilight
Moon
Length of Visible Light
Length of Day
Tomorrow will be .
, % of the Moon is Illuminated

Today's Extremes

State Highs State Lows

Community

WunderPhotos

Upload Photos

1,834,964 photos uploaded!

WunderBlogs® & News

Nearby

Air Quality

  Air Quality AQ Index Pollutant
Not available.

Snow Depth

Station Depth Elevation

Earthquake Activity

City Distance Mag. Time & Date
Minimum magnitude displayed is 2.5.

Coastal Water Temperatures

Place Temperature

Stations

Nearby Weather Stations

Station Location Temp. Windchill Dew Point Humidity Wind Precip. Elev Updated Type